sensor_id;sensor_type;location;lat;lon;timestamp;P1;durP1;ratioP1;P2;durP2;ratioP2
20122;SDS011;10222;50.848;4.336;2023-07-20T00:02:07;1.80;;;1.40;;
20122;SDS011;10222;50.848;4.336;2023-07-20T00:04:33;3.07;;;1.40;;
20122;SDS011;10222;50.848;4.336;2023-07-20T00:06:59;4.27;;;1.20;;
20122;SDS011;10222;50.848;4.336;2023-07-20T00:09:28;4.93;;;1.40;;
20122;SDS011;10222;50.848;4.336;2023-07-20T00:11:54;5.30;;;1.47;;
20122;SDS011;10222;50.848;4.336;2023-07-20T00:14:20;4.50;;;1.40;;
20122;SDS011;10222;50.848;4.336;2023-07-20T00:16:47;3.40;;;1.60;;
20122;SDS011;10222;50.848;4.336;2023-07-20T00:19:21;5.90;;;1.60;;
20122;SDS011;10222;50.848;4.336;2023-07-20T00:21:47;2.63;;;1.30;;
20122;SDS011;10222;50.848;4.336;2023-07-20T00:24:12;4.47;;;1.20;;
20122;SDS011;10222;50.848;4.336;2023-07-20T00:26:38;3.10;;;1.40;;
20122;SDS011;10222;50.848;4.336;2023-07-20T00:29:04;5.13;;;1.50;;
20122;SDS011;10222;50.848;4.336;2023-07-20T00:31:30;4.20;;;1.30;;
20122;SDS011;10222;50.848;4.336;2023-07-20T00:33:56;2.97;;;1.40;;
20122;SDS011;10222;50.848;4.336;2023-07-20T00:36:22;3.57;;;1.50;;
20122;SDS011;10222;50.848;4.336;2023-07-20T00:38:48;2.53;;;1.20;;
20122;SDS011;10222;50.848;4.336;2023-07-20T00:41:14;3.70;;;1.40;;
20122;SDS011;10222;50.848;4.336;2023-07-20T00:43:40;5.33;;;1.50;;
20122;SDS011;10222;50.848;4.336;2023-07-20T00:46:07;2.00;;;1.40;;
20122;SDS011;10222;50.848;4.336;2023-07-20T00:48:33;4.97;;;1.73;;
20122;SDS011;10222;50.848;4.336;2023-07-20T00:50:59;3.47;;;1.43;;
20122;SDS011;10222;50.848;4.336;2023-07-20T00:53:26;4.80;;;1.60;;
20122;SDS011;10222;50.848;4.336;2023-07-20T00:55:52;4.07;;;1.63;;
20122;SDS011;10222;50.848;4.336;2023-07-20T00:58:18;6.33;;;1.77;;
20122;SDS011;10222;50.848;4.336;2023-07-20T01:00:44;5.00;;;1.60;;
20122;SDS011;10222;50.848;4.336;2023-07-20T01:03:11;5.03;;;1.60;;
20122;SDS011;10222;50.848;4.336;2023-07-20T01:05:42;5.27;;;1.47;;
20122;SDS011;10222;50.848;4.336;2023-07-20T01:08:17;4.60;;;1.90;;
20122;SDS011;10222;50.848;4.336;2023-07-20T01:10:46;5.43;;;1.53;;
20122;SDS011;10222;50.848;4.336;2023-07-20T01:13:16;1.80;;;1.17;;
20122;SDS011;10222;50.848;4.336;2023-07-20T01:15:49;8.00;;;2.27;;
20122;SDS011;10222;50.848;4.336;2023-07-20T01:18:16;4.03;;;1.37;;
20122;SDS011;10222;50.848;4.336;2023-07-20T01:20:43;5.07;;;1.73;;
20122;SDS011;10222;50.848;4.336;2023-07-20T01:23:24;3.63;;;1.53;;
20122;SDS011;10222;50.848;4.336;2023-07-20T01:31:26;6.40;;;1.70;;
20122;SDS011;10222;50.848;4.336;2023-07-20T01:33:57;6.67;;;1.53;;
20122;SDS011;10222;50.848;4.336;2023-07-20T01:36:24;6.63;;;1.83;;
20122;SDS011;10222;50.848;4.336;2023-07-20T01:38:52;4.57;;;1.93;;
20122;SDS011;10222;50.848;4.336;2023-07-20T01:41:18;6.97;;;2.10;;
20122;SDS011;10222;50.848;4.336;2023-07-20T01:43:44;5.57;;;2.07;;
20122;SDS011;10222;50.848;4.336;2023-07-20T01:46:10;6.23;;;2.03;;
20122;SDS011;10222;50.848;4.336;2023-07-20T01:48:36;3.00;;;1.87;;
20122;SDS011;10222;50.848;4.336;2023-07-20T01:51:02;7.03;;;2.27;;
20122;SDS011;10222;50.848;4.336;2023-07-20T01:53:28;4.07;;;2.20;;
20122;SDS011;10222;50.848;4.336;2023-07-20T01:55:54;4.80;;;2.10;;
20122;SDS011;10222;50.848;4.336;2023-07-20T01:58:21;4.80;;;1.97;;
20122;SDS011;10222;50.848;4.336;2023-07-20T02:00:48;7.03;;;2.10;;
20122;SDS011;10222;50.848;4.336;2023-07-20T02:03:14;5.70;;;2.13;;
20122;SDS011;10222;50.848;4.336;2023-07-20T02:05:43;3.77;;;1.87;;
20122;SDS011;10222;50.848;4.336;2023-07-20T02:08:09;5.40;;;2.10;;
20122;SDS011;10222;50.848;4.336;2023-07-20T02:10:36;6.07;;;2.40;;
20122;SDS011;10222;50.848;4.336;2023-07-20T02:13:02;9.07;;;2.27;;
20122;SDS011;10222;50.848;4.336;2023-07-20T02:15:28;5.67;;;2.20;;
20122;SDS011;10222;50.848;4.336;2023-07-20T02:17:54;4.27;;;2.13;;
20122;SDS011;10222;50.848;4.336;2023-07-20T02:20:20;5.77;;;2.33;;
20122;SDS011;10222;50.848;4.336;2023-07-20T02:22:46;3.70;;;2.20;;
20122;SDS011;10222;50.848;4.336;2023-07-20T02:25:12;6.60;;;2.73;;
20122;SDS011;10222;50.848;4.336;2023-07-20T02:27:38;3.47;;;2.20;;
20122;SDS011;10222;50.848;4.336;2023-07-20T02:30:04;4.00;;;2.57;;
20122;SDS011;10222;50.848;4.336;2023-07-20T02:32:30;7.97;;;3.07;;
20122;SDS011;10222;50.848;4.336;2023-07-20T02:34:57;6.27;;;2.53;;
20122;SDS011;10222;50.848;4.336;2023-07-20T02:37:23;7.37;;;2.50;;
20122;SDS011;10222;50.848;4.336;2023-07-20T02:39:49;3.87;;;2.37;;
20122;SDS011;10222;50.848;4.336;2023-07-20T02:42:15;5.33;;;2.53;;
20122;SDS011;10222;50.848;4.336;2023-07-20T02:44:41;5.57;;;2.83;;
20122;SDS011;10222;50.848;4.336;2023-07-20T02:47:07;6.67;;;2.93;;
20122;SDS011;10222;50.848;4.336;2023-07-20T02:49:34;5.90;;;2.90;;
20122;SDS011;10222;50.848;4.336;2023-07-20T02:52:00;9.27;;;2.70;;
20122;SDS011;10222;50.848;4.336;2023-07-20T02:54:26;4.97;;;2.77;;
20122;SDS011;10222;50.848;4.336;2023-07-20T02:56:52;11.10;;;3.10;;
20122;SDS011;10222;50.848;4.336;2023-07-20T02:59:18;6.13;;;2.90;;
20122;SDS011;10222;50.848;4.336;2023-07-20T03:01:44;10.10;;;3.00;;
20122;SDS011;10222;50.848;4.336;2023-07-20T03:04:10;8.70;;;3.00;;
20122;SDS011;10222;50.848;4.336;2023-07-20T03:06:36;10.37;;;2.63;;
20122;SDS011;10222;50.848;4.336;2023-07-20T03:09:02;5.60;;;2.50;;
20122;SDS011;10222;50.848;4.336;2023-07-20T03:11:29;7.40;;;2.73;;
20122;SDS011;10222;50.848;4.336;2023-07-20T03:13:55;9.27;;;3.00;;
20122;SDS011;10222;50.848;4.336;2023-07-20T03:16:21;4.50;;;2.37;;
20122;SDS011;10222;50.848;4.336;2023-07-20T03:18:47;7.33;;;2.87;;
20122;SDS011;10222;50.848;4.336;2023-07-20T03:21:13;7.97;;;3.17;;
20122;SDS011;10222;50.848;4.336;2023-07-20T03:23:39;6.83;;;3.10;;
20122;SDS011;10222;50.848;4.336;2023-07-20T03:26:05;9.07;;;3.50;;
20122;SDS011;10222;50.848;4.336;2023-07-20T03:28:33;9.37;;;4.40;;
20122;SDS011;10222;50.848;4.336;2023-07-20T03:30:59;9.17;;;3.73;;
20122;SDS011;10222;50.848;4.336;2023-07-20T03:33:26;11.13;;;4.17;;
20122;SDS011;10222;50.848;4.336;2023-07-20T03:35:52;9.50;;;4.03;;
20122;SDS011;10222;50.848;4.336;2023-07-20T03:38:19;8.60;;;3.80;;
20122;SDS011;10222;50.848;4.336;2023-07-20T03:41:06;8.90;;;3.50;;
20122;SDS011;10222;50.848;4.336;2023-07-20T03:43:31;10.23;;;3.80;;
20122;SDS011;10222;50.848;4.336;2023-07-20T03:45:57;6.97;;;3.50;;
20122;SDS011;10222;50.848;4.336;2023-07-20T03:48:24;9.23;;;4.10;;
20122;SDS011;10222;50.848;4.336;2023-07-20T03:50:51;9.40;;;4.63;;
20122;SDS011;10222;50.848;4.336;2023-07-20T03:53:17;8.77;;;4.63;;
20122;SDS011;10222;50.848;4.336;2023-07-20T03:55:47;7.43;;;4.23;;
20122;SDS011;10222;50.848;4.336;2023-07-20T03:58:13;9.43;;;3.73;;
20122;SDS011;10222;50.848;4.336;2023-07-20T04:00:39;10.30;;;4.30;;
20122;SDS011;10222;50.848;4.336;2023-07-20T04:03:06;11.10;;;4.73;;
20122;SDS011;10222;50.848;4.336;2023-07-20T04:05:32;7.77;;;4.40;;
20122;SDS011;10222;50.848;4.336;2023-07-20T04:07:58;11.60;;;4.93;;
20122;SDS011;10222;50.848;4.336;2023-07-20T04:10:24;8.37;;;4.00;;
20122;SDS011;10222;50.848;4.336;2023-07-20T04:12:50;7.33;;;4.47;;
20122;SDS011;10222;50.848;4.336;2023-07-20T04:15:16;10.70;;;5.43;;
20122;SDS011;10222;50.848;4.336;2023-07-20T04:17:42;11.37;;;4.47;;
20122;SDS011;10222;50.848;4.336;2023-07-20T04:20:08;9.10;;;5.03;;
20122;SDS011;10222;50.848;4.336;2023-07-20T04:22:34;11.43;;;4.13;;
20122;SDS011;10222;50.848;4.336;2023-07-20T04:25:00;8.43;;;4.30;;
20122;SDS011;10222;50.848;4.336;2023-07-20T04:27:26;10.23;;;4.53;;
20122;SDS011;10222;50.848;4.336;2023-07-20T04:29:52;10.53;;;4.30;;
20122;SDS011;10222;50.848;4.336;2023-07-20T04:32:18;9.20;;;4.67;;
20122;SDS011;10222;50.848;4.336;2023-07-20T04:34:44;11.97;;;4.47;;
20122;SDS011;10222;50.848;4.336;2023-07-20T04:37:10;9.47;;;4.63;;
20122;SDS011;10222;50.848;4.336;2023-07-20T04:39:36;9.83;;;4.70;;
20122;SDS011;10222;50.848;4.336;2023-07-20T04:42:02;8.50;;;4.20;;
20122;SDS011;10222;50.848;4.336;2023-07-20T04:44:28;8.97;;;4.63;;
20122;SDS011;10222;50.848;4.336;2023-07-20T04:46:54;12.80;;;4.93;;
20122;SDS011;10222;50.848;4.336;2023-07-20T04:49:20;9.53;;;4.00;;
20122;SDS011;10222;50.848;4.336;2023-07-20T04:51:46;8.30;;;4.60;;
20122;SDS011;10222;50.848;4.336;2023-07-20T04:54:12;8.60;;;5.00;;
20122;SDS011;10222;50.848;4.336;2023-07-20T04:56:38;7.57;;;5.20;;
20122;SDS011;10222;50.848;4.336;2023-07-20T04:59:04;9.13;;;5.67;;
20122;SDS011;10222;50.848;4.336;2023-07-20T05:01:30;11.03;;;5.47;;
20122;SDS011;10222;50.848;4.336;2023-07-20T05:03:56;9.87;;;5.27;;
20122;SDS011;10222;50.848;4.336;2023-07-20T05:06:22;8.13;;;4.90;;
20122;SDS011;10222;50.848;4.336;2023-07-20T05:08:48;10.37;;;5.30;;
20122;SDS011;10222;50.848;4.336;2023-07-20T05:11:14;10.03;;;5.13;;
20122;SDS011;10222;50.848;4.336;2023-07-20T05:13:40;8.87;;;4.77;;
20122;SDS011;10222;50.848;4.336;2023-07-20T05:16:06;9.00;;;5.50;;
20122;SDS011;10222;50.848;4.336;2023-07-20T05:18:33;13.57;;;5.10;;
20122;SDS011;10222;50.848;4.336;2023-07-20T05:20:59;9.00;;;5.10;;
20122;SDS011;10222;50.848;4.336;2023-07-20T05:23:25;9.43;;;4.63;;
20122;SDS011;10222;50.848;4.336;2023-07-20T05:25:58;8.73;;;5.03;;
20122;SDS011;10222;50.848;4.336;2023-07-20T05:28:24;9.17;;;5.03;;
20122;SDS011;10222;50.848;4.336;2023-07-20T05:30:51;11.00;;;5.10;;
20122;SDS011;10222;50.848;4.336;2023-07-20T05:33:18;8.13;;;5.20;;
20122;SDS011;10222;50.848;4.336;2023-07-20T05:35:44;9.80;;;5.03;;
20122;SDS011;10222;50.848;4.336;2023-07-20T05:38:10;9.70;;;4.67;;
20122;SDS011;10222;50.848;4.336;2023-07-20T05:40:43;8.43;;;4.63;;
20122;SDS011;10222;50.848;4.336;2023-07-20T05:43:10;10.90;;;5.80;;
20122;SDS011;10222;50.848;4.336;2023-07-20T05:45:36;13.07;;;5.40;;
20122;SDS011;10222;50.848;4.336;2023-07-20T05:48:02;9.30;;;4.93;;
20122;SDS011;10222;50.848;4.336;2023-07-20T05:50:29;11.33;;;4.70;;
20122;SDS011;10222;50.848;4.336;2023-07-20T05:52:55;9.33;;;5.23;;
20122;SDS011;10222;50.848;4.336;2023-07-20T05:55:21;7.73;;;5.23;;
20122;SDS011;10222;50.848;4.336;2023-07-20T05:57:47;7.00;;;4.77;;
20122;SDS011;10222;50.848;4.336;2023-07-20T06:00:14;9.80;;;4.90;;
20122;SDS011;10222;50.848;4.336;2023-07-20T06:02:40;9.20;;;5.03;;
20122;SDS011;10222;50.848;4.336;2023-07-20T06:05:07;10.47;;;5.40;;
20122;SDS011;10222;50.848;4.336;2023-07-20T06:07:37;9.33;;;5.23;;
20122;SDS011;10222;50.848;4.336;2023-07-20T06:10:03;9.40;;;4.50;;
20122;SDS011;10222;50.848;4.336;2023-07-20T06:12:29;10.80;;;5.50;;
20122;SDS011;10222;50.848;4.336;2023-07-20T06:14:55;7.13;;;4.57;;
20122;SDS011;10222;50.848;4.336;2023-07-20T06:17:22;8.43;;;4.53;;
20122;SDS011;10222;50.848;4.336;2023-07-20T06:19:48;11.23;;;5.17;;
20122;SDS011;10222;50.848;4.336;2023-07-20T06:22:14;6.20;;;4.07;;
20122;SDS011;10222;50.848;4.336;2023-07-20T06:24:40;11.03;;;4.47;;
20122;SDS011;10222;50.848;4.336;2023-07-20T06:27:06;6.43;;;4.43;;
20122;SDS011;10222;50.848;4.336;2023-07-20T06:29:32;5.73;;;3.67;;
20122;SDS011;10222;50.848;4.336;2023-07-20T06:31:58;4.47;;;3.20;;
20122;SDS011;10222;50.848;4.336;2023-07-20T06:34:24;5.53;;;3.10;;
20122;SDS011;10222;50.848;4.336;2023-07-20T06:36:50;5.70;;;3.00;;
20122;SDS011;10222;50.848;4.336;2023-07-20T06:39:16;7.97;;;3.53;;
20122;SDS011;10222;50.848;4.336;2023-07-20T06:41:42;7.80;;;3.47;;
20122;SDS011;10222;50.848;4.336;2023-07-20T06:44:08;6.27;;;3.07;;
20122;SDS011;10222;50.848;4.336;2023-07-20T06:46:34;5.13;;;2.67;;
20122;SDS011;10222;50.848;4.336;2023-07-20T06:49:00;4.10;;;2.47;;
20122;SDS011;10222;50.848;4.336;2023-07-20T06:51:26;4.53;;;2.57;;
20122;SDS011;10222;50.848;4.336;2023-07-20T06:53:52;6.30;;;3.37;;
20122;SDS011;10222;50.848;4.336;2023-07-20T06:56:18;4.30;;;2.80;;
20122;SDS011;10222;50.848;4.336;2023-07-20T06:58:45;5.90;;;3.10;;
20122;SDS011;10222;50.848;4.336;2023-07-20T07:01:11;4.27;;;2.53;;
20122;SDS011;10222;50.848;4.336;2023-07-20T07:03:37;6.47;;;2.50;;
20122;SDS011;10222;50.848;4.336;2023-07-20T07:06:03;3.50;;;2.23;;
20122;SDS011;10222;50.848;4.336;2023-07-20T07:08:29;4.27;;;2.27;;
20122;SDS011;10222;50.848;4.336;2023-07-20T07:10:55;2.33;;;1.60;;
20122;SDS011;10222;50.848;4.336;2023-07-20T07:13:21;2.20;;;1.30;;
20122;SDS011;10222;50.848;4.336;2023-07-20T07:15:47;3.47;;;1.10;;
20122;SDS011;10222;50.848;4.336;2023-07-20T07:18:13;2.37;;;1.50;;
20122;SDS011;10222;50.848;4.336;2023-07-20T07:20:40;2.93;;;1.63;;
20122;SDS011;10222;50.848;4.336;2023-07-20T07:23:06;3.07;;;2.13;;
20122;SDS011;10222;50.848;4.336;2023-07-20T07:25:32;4.43;;;1.80;;
20122;SDS011;10222;50.848;4.336;2023-07-20T07:27:58;2.33;;;1.70;;
20122;SDS011;10222;50.848;4.336;2023-07-20T07:30:24;2.53;;;1.50;;
20122;SDS011;10222;50.848;4.336;2023-07-20T07:32:50;2.70;;;1.60;;
20122;SDS011;10222;50.848;4.336;2023-07-20T07:35:17;3.80;;;1.40;;
20122;SDS011;10222;50.848;4.336;2023-07-20T07:37:43;1.30;;;1.13;;
20122;SDS011;10222;50.848;4.336;2023-07-20T07:40:11;2.40;;;1.57;;
20122;SDS011;10222;50.848;4.336;2023-07-20T07:42:37;1.20;;;0.90;;
20122;SDS011;10222;50.848;4.336;2023-07-20T07:45:03;1.00;;;0.67;;
20122;SDS011;10222;50.848;4.336;2023-07-20T07:47:29;1.20;;;0.70;;
20122;SDS011;10222;50.848;4.336;2023-07-20T07:49:55;1.30;;;0.77;;
20122;SDS011;10222;50.848;4.336;2023-07-20T07:52:22;2.67;;;0.83;;
20122;SDS011;10222;50.848;4.336;2023-07-20T07:54:48;1.00;;;0.80;;
20122;SDS011;10222;50.848;4.336;2023-07-20T07:57:15;2.73;;;1.30;;
20122;SDS011;10222;50.848;4.336;2023-07-20T07:59:41;2.93;;;1.27;;
20122;SDS011;10222;50.848;4.336;2023-07-20T08:02:07;4.37;;;1.30;;
20122;SDS011;10222;50.848;4.336;2023-07-20T08:04:33;2.27;;;1.00;;
20122;SDS011;10222;50.848;4.336;2023-07-20T08:06:59;1.50;;;0.90;;
20122;SDS011;10222;50.848;4.336;2023-07-20T08:09:25;2.37;;;1.10;;
20122;SDS011;10222;50.848;4.336;2023-07-20T08:11:51;1.13;;;0.70;;
20122;SDS011;10222;50.848;4.336;2023-07-20T08:14:17;1.80;;;0.80;;
20122;SDS011;10222;50.848;4.336;2023-07-20T08:16:44;1.80;;;0.90;;
20122;SDS011;10222;50.848;4.336;2023-07-20T08:19:10;0.80;;;0.70;;
20122;SDS011;10222;50.848;4.336;2023-07-20T08:21:36;1.37;;;0.87;;
20122;SDS011;10222;50.848;4.336;2023-07-20T08:24:02;1.13;;;0.60;;
20122;SDS011;10222;50.848;4.336;2023-07-20T08:26:28;1.50;;;0.60;;
20122;SDS011;10222;50.848;4.336;2023-07-20T08:28:54;1.67;;;0.90;;
20122;SDS011;10222;50.848;4.336;2023-07-20T08:31:21;1.07;;;0.67;;
20122;SDS011;10222;50.848;4.336;2023-07-20T08:33:47;0.53;;;0.50;;
20122;SDS011;10222;50.848;4.336;2023-07-20T08:36:13;2.33;;;0.57;;
20122;SDS011;10222;50.848;4.336;2023-07-20T08:38:39;1.37;;;0.70;;
20122;SDS011;10222;50.848;4.336;2023-07-20T08:41:05;4.77;;;0.73;;
20122;SDS011;10222;50.848;4.336;2023-07-20T08:43:31;1.73;;;0.67;;
20122;SDS011;10222;50.848;4.336;2023-07-20T08:45:58;2.13;;;0.80;;
20122;SDS011;10222;50.848;4.336;2023-07-20T08:48:24;2.60;;;0.70;;
20122;SDS011;10222;50.848;4.336;2023-07-20T08:50:52;1.43;;;0.70;;
20122;SDS011;10222;50.848;4.336;2023-07-20T08:53:19;0.67;;;0.50;;
20122;SDS011;10222;50.848;4.336;2023-07-20T08:55:45;1.43;;;1.00;;
20122;SDS011;10222;50.848;4.336;2023-07-20T08:58:12;1.50;;;1.17;;
20122;SDS011;10222;50.848;4.336;2023-07-20T09:00:39;1.50;;;1.10;;
20122;SDS011;10222;50.848;4.336;2023-07-20T09:03:07;1.30;;;0.90;;
20122;SDS011;10222;50.848;4.336;2023-07-20T09:05:34;1.43;;;0.80;;
20122;SDS011;10222;50.848;4.336;2023-07-20T09:08:01;0.97;;;0.77;;
20122;SDS011;10222;50.848;4.336;2023-07-20T09:10:30;2.85;;;0.82;;
20122;SDS011;10222;50.848;4.336;2023-07-20T09:12:56;1.33;;;0.90;;
20122;SDS011;10222;50.848;4.336;2023-07-20T09:15:22;2.30;;;0.80;;
20122;SDS011;10222;50.848;4.336;2023-07-20T09:17:49;2.00;;;0.70;;
20122;SDS011;10222;50.848;4.336;2023-07-20T09:20:16;0.73;;;0.60;;
20122;SDS011;10222;50.848;4.336;2023-07-20T09:22:43;1.25;;;0.70;;
20122;SDS011;10222;50.848;4.336;2023-07-20T09:25:16;1.73;;;0.60;;
20122;SDS011;10222;50.848;4.336;2023-07-20T09:27:42;2.27;;;0.73;;
20122;SDS011;10222;50.848;4.336;2023-07-20T09:30:09;1.38;;;0.90;;
20122;SDS011;10222;50.848;4.336;2023-07-20T09:37:46;1.23;;;0.50;;
20122;SDS011;10222;50.848;4.336;2023-07-20T09:40:14;1.60;;;0.60;;
20122;SDS011;10222;50.848;4.336;2023-07-20T09:42:41;1.55;;;0.52;;
20122;SDS011;10222;50.848;4.336;2023-07-20T09:45:08;0.77;;;0.47;;
20122;SDS011;10222;50.848;4.336;2023-07-20T09:47:35;0.98;;;0.57;;
20122;SDS011;10222;50.848;4.336;2023-07-20T09:50:02;0.73;;;0.50;;
20122;SDS011;10222;50.848;4.336;2023-07-20T09:52:29;1.07;;;0.73;;
20122;SDS011;10222;50.848;4.336;2023-07-20T09:54:55;0.90;;;0.40;;
20122;SDS011;10222;50.848;4.336;2023-07-20T09:57:21;0.40;;;0.40;;
20122;SDS011;10222;50.848;4.336;2023-07-20T09:59:47;0.53;;;0.40;;
20122;SDS011;10222;50.848;4.336;2023-07-20T10:02:20;0.73;;;0.73;;
20122;SDS011;10222;50.848;4.336;2023-07-20T10:04:47;0.70;;;0.60;;
20122;SDS011;10222;50.848;4.336;2023-07-20T10:07:14;1.35;;;0.75;;
20122;SDS011;10222;50.848;4.336;2023-07-20T10:09:41;0.75;;;0.75;;
20122;SDS011;10222;50.848;4.336;2023-07-20T10:12:07;1.80;;;0.73;;
20122;SDS011;10222;50.848;4.336;2023-07-20T10:14:35;2.55;;;0.70;;
20122;SDS011;10222;50.848;4.336;2023-07-20T10:17:04;1.45;;;0.65;;
20122;SDS011;10222;50.848;4.336;2023-07-20T10:19:40;0.60;;;0.60;;
20122;SDS011;10222;50.848;4.336;2023-07-20T10:22:25;0.70;;;0.60;;
20122;SDS011;10222;50.848;4.336;2023-07-20T10:24:52;1.85;;;0.68;;
20122;SDS011;10222;50.848;4.336;2023-07-20T10:27:19;0.93;;;0.70;;
20122;SDS011;10222;50.848;4.336;2023-07-20T10:29:46;0.60;;;0.55;;
20122;SDS011;10222;50.848;4.336;2023-07-20T10:32:12;2.40;;;0.60;;
20122;SDS011;10222;50.848;4.336;2023-07-20T10:34:38;0.68;;;0.68;;
20122;SDS011;10222;50.848;4.336;2023-07-20T10:37:05;1.80;;;0.65;;
20122;SDS011;10222;50.848;4.336;2023-07-20T10:39:32;0.70;;;0.70;;
20122;SDS011;10222;50.848;4.336;2023-07-20T10:42:02;1.35;;;0.73;;
20122;SDS011;10222;50.848;4.336;2023-07-20T10:44:28;0.55;;;0.55;;
20122;SDS011;10222;50.848;4.336;2023-07-20T10:46:59;0.70;;;0.68;;
20122;SDS011;10222;50.848;4.336;2023-07-20T10:49:25;0.65;;;0.60;;
20122;SDS011;10222;50.848;4.336;2023-07-20T10:51:56;1.42;;;0.93;;
20122;SDS011;10222;50.848;4.336;2023-07-20T10:56:51;2.17;;;0.85;;
20122;SDS011;10222;50.848;4.336;2023-07-20T10:59:18;1.23;;;1.00;;
20122;SDS011;10222;50.848;4.336;2023-07-20T11:01:47;1.92;;;0.70;;
20122;SDS011;10222;50.848;4.336;2023-07-20T11:04:16;2.03;;;0.90;;
20122;SDS011;10222;50.848;4.336;2023-07-20T11:06:46;0.93;;;0.70;;
20122;SDS011;10222;50.848;4.336;2023-07-20T11:09:15;1.85;;;0.82;;
20122;SDS011;10222;50.848;4.336;2023-07-20T11:11:50;0.70;;;0.70;;
20122;SDS011;10222;50.848;4.336;2023-07-20T11:14:25;0.98;;;0.80;;
20122;SDS011;10222;50.848;4.336;2023-07-20T11:16:52;0.70;;;0.70;;
20122;SDS011;10222;50.848;4.336;2023-07-20T11:19:21;0.70;;;0.70;;
20122;SDS011;10222;50.848;4.336;2023-07-20T11:21:52;1.10;;;0.80;;
20122;SDS011;10222;50.848;4.336;2023-07-20T11:24:18;1.52;;;1.33;;
20122;SDS011;10222;50.848;4.336;2023-07-20T11:26:53;1.05;;;0.88;;
20122;SDS011;10222;50.848;4.336;2023-07-20T11:29:21;1.80;;;0.90;;
20122;SDS011;10222;50.848;4.336;2023-07-20T11:31:49;1.02;;;0.93;;
20122;SDS011;10222;50.848;4.336;2023-07-20T11:34:15;1.40;;;1.20;;
20122;SDS011;10222;50.848;4.336;2023-07-20T11:36:43;1.33;;;1.23;;
20122;SDS011;10222;50.848;4.336;2023-07-20T11:39:10;1.23;;;1.13;;
20122;SDS011;10222;50.848;4.336;2023-07-20T11:41:37;2.00;;;1.40;;
20122;SDS011;10222;50.848;4.336;2023-07-20T11:44:03;1.90;;;1.27;;
20122;SDS011;10222;50.848;4.336;2023-07-20T11:46:31;1.67;;;1.55;;
20122;SDS011;10222;50.848;4.336;2023-07-20T11:49:00;1.50;;;1.38;;
20122;SDS011;10222;50.848;4.336;2023-07-20T11:51:27;2.25;;;1.50;;
20122;SDS011;10222;50.848;4.336;2023-07-20T11:53:53;1.63;;;1.25;;
20122;SDS011;10222;50.848;4.336;2023-07-20T11:56:19;1.77;;;1.27;;
20122;SDS011;10222;50.848;4.336;2023-07-20T11:58:45;1.85;;;1.25;;
20122;SDS011;10222;50.848;4.336;2023-07-20T12:01:12;2.50;;;1.40;;
20122;SDS011;10222;50.848;4.336;2023-07-20T12:03:38;1.52;;;1.42;;
20122;SDS011;10222;50.848;4.336;2023-07-20T12:06:08;1.58;;;1.48;;
20122;SDS011;10222;50.848;4.336;2023-07-20T12:08:34;1.83;;;1.30;;
20122;SDS011;10222;50.848;4.336;2023-07-20T12:11:00;1.23;;;1.13;;
20122;SDS011;10222;50.848;4.336;2023-07-20T12:13:39;1.60;;;1.50;;
20122;SDS011;10222;50.848;4.336;2023-07-20T12:16:09;1.75;;;1.50;;
20122;SDS011;10222;50.848;4.336;2023-07-20T12:18:35;4.72;;;1.48;;
20122;SDS011;10222;50.848;4.336;2023-07-20T12:21:01;3.50;;;1.50;;
20122;SDS011;10222;50.848;4.336;2023-07-20T12:23:34;1.80;;;1.50;;
20122;SDS011;10222;50.848;4.336;2023-07-20T12:26:00;1.73;;;1.50;;
20122;SDS011;10222;50.848;4.336;2023-07-20T12:28:27;2.58;;;1.38;;
20122;SDS011;10222;50.848;4.336;2023-07-20T12:30:53;2.70;;;1.40;;
20122;SDS011;10222;50.848;4.336;2023-07-20T12:33:21;2.90;;;1.75;;
20122;SDS011;10222;50.848;4.336;2023-07-20T12:35:48;2.42;;;1.60;;
20122;SDS011;10222;50.848;4.336;2023-07-20T12:38:14;2.03;;;1.30;;
20122;SDS011;10222;50.848;4.336;2023-07-20T12:40:40;1.85;;;1.50;;
20122;SDS011;10222;50.848;4.336;2023-07-20T12:43:06;3.80;;;1.25;;
20122;SDS011;10222;50.848;4.336;2023-07-20T12:45:33;2.63;;;1.50;;
20122;SDS011;10222;50.848;4.336;2023-07-20T12:47:59;2.45;;;1.38;;
20122;SDS011;10222;50.848;4.336;2023-07-20T12:50:25;2.03;;;1.58;;
20122;SDS011;10222;50.848;4.336;2023-07-20T12:52:51;2.33;;;1.48;;
20122;SDS011;10222;50.848;4.336;2023-07-20T12:55:17;1.42;;;1.20;;
20122;SDS011;10222;50.848;4.336;2023-07-20T12:57:43;1.98;;;1.27;;
20122;SDS011;10222;50.848;4.336;2023-07-20T13:00:09;1.63;;;1.30;;
20122;SDS011;10222;50.848;4.336;2023-07-20T13:02:37;2.72;;;1.60;;
20122;SDS011;10222;50.848;4.336;2023-07-20T13:05:03;2.28;;;1.35;;
20122;SDS011;10222;50.848;4.336;2023-07-20T13:07:30;3.05;;;1.30;;
20122;SDS011;10222;50.848;4.336;2023-07-20T13:09:57;1.17;;;1.08;;
20122;SDS011;10222;50.848;4.336;2023-07-20T13:12:24;1.70;;;1.20;;
20122;SDS011;10222;50.848;4.336;2023-07-20T13:14:50;2.92;;;1.35;;
20122;SDS011;10222;50.848;4.336;2023-07-20T13:17:16;1.17;;;1.02;;
20122;SDS011;10222;50.848;4.336;2023-07-20T13:19:42;2.90;;;1.48;;
20122;SDS011;10222;50.848;4.336;2023-07-20T13:22:08;1.75;;;1.25;;
20122;SDS011;10222;50.848;4.336;2023-07-20T13:24:33;3.42;;;1.60;;
20122;SDS011;10222;50.848;4.336;2023-07-20T13:26:59;2.00;;;1.50;;
20122;SDS011;10222;50.848;4.336;2023-07-20T13:29:25;3.75;;;1.48;;
20122;SDS011;10222;50.848;4.336;2023-07-20T13:31:52;3.95;;;1.33;;
20122;SDS011;10222;50.848;4.336;2023-07-20T13:34:18;1.20;;;1.10;;
20122;SDS011;10222;50.848;4.336;2023-07-20T13:36:44;1.40;;;1.30;;
20122;SDS011;10222;50.848;4.336;2023-07-20T13:39:10;4.50;;;1.33;;
20122;SDS011;10222;50.848;4.336;2023-07-20T13:41:36;4.47;;;1.40;;
20122;SDS011;10222;50.848;4.336;2023-07-20T13:44:02;5.28;;;1.38;;
20122;SDS011;10222;50.848;4.336;2023-07-20T13:46:28;2.10;;;1.42;;
20122;SDS011;10222;50.848;4.336;2023-07-20T13:48:54;0.98;;;0.88;;
20122;SDS011;10222;50.848;4.336;2023-07-20T13:51:20;1.97;;;1.40;;
20122;SDS011;10222;50.848;4.336;2023-07-20T13:53:47;2.28;;;1.00;;
20122;SDS011;10222;50.848;4.336;2023-07-20T13:56:13;1.80;;;1.07;;
20122;SDS011;10222;50.848;4.336;2023-07-20T13:58:39;1.05;;;0.88;;
20122;SDS011;10222;50.848;4.336;2023-07-20T14:01:05;1.20;;;1.00;;
20122;SDS011;10222;50.848;4.336;2023-07-20T14:03:31;2.72;;;1.30;;
20122;SDS011;10222;50.848;4.336;2023-07-20T14:05:57;1.48;;;1.00;;
20122;SDS011;10222;50.848;4.336;2023-07-20T14:08:23;1.17;;;1.00;;
20122;SDS011;10222;50.848;4.336;2023-07-20T14:10:49;3.03;;;1.20;;
20122;SDS011;10222;50.848;4.336;2023-07-20T14:13:15;2.65;;;1.00;;
20122;SDS011;10222;50.848;4.336;2023-07-20T14:15:41;1.30;;;0.90;;
20122;SDS011;10222;50.848;4.336;2023-07-20T14:18:07;2.58;;;1.10;;
20122;SDS011;10222;50.848;4.336;2023-07-20T14:20:33;2.35;;;1.10;;
20122;SDS011;10222;50.848;4.336;2023-07-20T14:23:00;1.90;;;1.13;;
20122;SDS011;10222;50.848;4.336;2023-07-20T14:25:26;1.52;;;1.15;;
20122;SDS011;10222;50.848;4.336;2023-07-20T14:27:52;1.10;;;0.73;;
20122;SDS011;10222;50.848;4.336;2023-07-20T14:30:18;1.13;;;0.80;;
20122;SDS011;10222;50.848;4.336;2023-07-20T14:32:44;2.70;;;0.93;;
20122;SDS011;10222;50.848;4.336;2023-07-20T14:35:10;1.60;;;0.80;;
20122;SDS011;10222;50.848;4.336;2023-07-20T14:37:36;1.52;;;0.70;;
20122;SDS011;10222;50.848;4.336;2023-07-20T14:40:02;0.98;;;0.68;;
20122;SDS011;10222;50.848;4.336;2023-07-20T14:42:30;3.40;;;1.35;;
20122;SDS011;10222;50.848;4.336;2023-07-20T14:44:57;1.30;;;0.98;;
20122;SDS011;10222;50.848;4.336;2023-07-20T14:47:23;0.60;;;0.60;;
20122;SDS011;10222;50.848;4.336;2023-07-20T14:49:49;1.40;;;0.85;;
20122;SDS011;10222;50.848;4.336;2023-07-20T14:52:15;3.13;;;1.38;;
20122;SDS011;10222;50.848;4.336;2023-07-20T14:54:42;1.50;;;0.90;;
20122;SDS011;10222;50.848;4.336;2023-07-20T14:57:08;2.28;;;0.82;;